Terminal Aerodrome Forecast
Issued by NWS Pocatello, ID

Home | Current Version | Previous Version | Text Only | Print | Product List | Glossary On
Versions: 1 2 3 4 5 6 7 8 9 10 11 12 13 14 15 16 17 18 19 20 21 22 23 24 25 26 27 28 29 30 31 32 33 34 35 36 37 38
000
FTUS45 KPIH 202320
TAFIDA
TAF
KIDA 202320Z 2100/2124 25025G35KT P6SM SCT060 SCT100
     FM210100 33020G30KT P6SM VCSH SCT060 BKN100
     FM210300 VRB05KT P6SM SCT050 BKN080
     FM211400 22008KT P6SM SCT070 SCT180
     FM211800 25015KT P6SM SCT060 SCT200=

USA.gov is the U.S. government's official web portal to all federal, state and local government web resources and services.